Hay, WA (99136)

12:07 AM PDT on September 18, 2014 (GMT -0700)
Central Ferry | Change Station
CLOSE
Current Station
Personal Weather Station
Location: Pomeroy, WA
Elevation: 671 ft
Nearby Weather Stations

Elev 671 ft 46.67 °N, 117.75 °W | Updated 3 minutes ago

Partly Cloudy
Partly Cloudy
67.5 °F
Feels Like 67.5 °F
N
0.0
Wind Variable Wind from SE
Gusts 0.0 mph

Today
High -- | Low -- °F
--% Chance of Precip.
Yesterday
High -- | Low -- °F
Precip. -- in
6:33 AM 6:57 PM
Waning Crescent, 29% visible
Pressure 29.65 in
Visibility 8.0 miles
Clouds Clear
Dew Point 43 °F
Humidity 42%
Rainfall 0.00 in
Snow Depth Not available.
UV 0 out of 12
Pollen 7.10 out of 12
Air Quality Not available.
Flu Activity Not available.
METAR KPUW 180653Z AUTO 00000KT 8SM CLR 14/03 A2970 RMK AO2 SLP041 T01440028

More Conditions Fewer Conditions

Pressure 29.65 in
Visibility 8.0 miles
Clouds Clear
Dew Point 43 °F
Humidity 42%
Rainfall 0.00 in
Snow Depth Not available.
UV 0 out of 12
Pollen 7.10 out of 12
Air Quality Not available.
Flu Activity Not available.
METAR KPUW 180653Z AUTO 00000KT 8SM CLR 14/03 A2970 RMK AO2 SLP041 T01440028

More Conditions Fewer Conditions

10-Day Weather Forecast

Almanac

Astronomy

Sep. 18, 2014 Rise Set
Actual Time 6:33 AM PDT 6:57 PM PDT
Civil Twilight 6:03 AM PDT 7:27 PM PDT
Nautical Twilight 5:27 AM PDT 8:03 PM PDT
Astronomical Twilight 4:50 AM PDT 8:40 PM PDT
Moon 1:15 AM PDT 4:04 PM PDT
Length of Visible Light 13h 24m
Length of Day
12h 23m
Tomorrow will be 3m 18s shorter.
Waning Crescent, 29% of the Moon is Illuminated
Today
Waning Crescent
Sep 24
New
Oct 1
First Quarter
Oct 8
Full
Oct 15
Last Quarter

Community

WunderPhotos

Upload Photos

1,754,298 photos uploaded!

Nearby

Snow Depth

Station Depth Elevation
Surprise Lakes 0 in 4250 ft
Swift Creek 0 in 3770 ft
Mount Crag 0 in 4050 ft
Meadows Pass 0 in 3500 ft
Morse Lake 0 in 5400 ft

Earthquake Activity

City Distance Mag. Time & Date
No recent earthquake activity has been reported nearby.
Minimum magnitude displayed is 2.5.

Coastal Water Temperatures

Place Temperature
No Stations Reporting

Nearby Weather Stations